Time;durP1;ratioP1;P1;durP2;ratioP2;P2;SDS_P1;SDS_P2;PMS_P1;PMS_P2;Temp;Humidity;BMP_temperature;BMP_pressure;BME280_temperature;BME280_humidity;BME280_pressure;Samples;Min_cycle;Max_cycle;Signal;HPM_P1;HPM_P2
2024/01/18 00:00:33;;;;;;;13.13;12.63;;;20.40;41.60;;;;;;5041195;28;20499;-61
2024/01/18 00:03:00;;;;;;;10.60;10.10;;;20.40;41.70;;;;;;5043953;28;20472;-60
2024/01/18 00:05:27;;;;;;;10.97;10.57;;;20.40;41.70;;;;;;5043886;28;20882;-62
2024/01/18 00:07:54;;;;;;;11.50;11.00;;;20.40;41.70;;;;;;5040473;28;20465;-59
2024/01/18 00:10:26;;;;;;;11.07;10.67;;;20.40;41.70;;;;;;5040620;28;20615;-60
2024/01/18 00:12:53;;;;;;;11.20;10.80;;;20.40;41.70;;;;;;5027579;28;20528;-59
2024/01/18 00:15:21;;;;;;;11.30;10.70;;;20.40;41.60;;;;;;5043726;28;20916;-60
2024/01/18 00:17:48;;;;;;;10.83;10.43;;;20.40;41.70;;;;;;5040706;28;20554;-60
2024/01/18 00:20:15;;;;;;;10.80;10.33;;;20.40;41.70;;;;;;5040232;28;21491;-62
2024/01/18 00:22:42;;;;;;;10.80;10.47;;;20.40;41.70;;;;;;5042132;28;20522;-62
2024/01/18 00:25:10;;;;;;;10.70;10.30;;;20.40;41.70;;;;;;5043804;28;20475;-60
2024/01/18 00:27:37;;;;;;;10.70;10.33;;;20.40;41.70;;;;;;5042197;28;20448;-60
2024/01/18 00:30:04;;;;;;;11.97;11.37;;;20.40;41.70;;;;;;5040058;28;20562;-61
2024/01/18 00:32:33;;;;;;;11.13;10.73;;;20.40;41.80;;;;;;5040290;28;20876;-59
2024/01/18 00:34:59;;;;;;;10.40;10.00;;;20.40;41.80;;;;;;5043525;28;20555;-61
2024/01/18 00:37:26;;;;;;;10.70;10.20;;;20.40;41.80;;;;;;5043481;28;20468;-61
2024/01/18 00:39:53;;;;;;;11.47;10.97;;;20.40;41.80;;;;;;5031734;28;20464;-60
2024/01/18 00:42:20;;;;;;;11.03;10.57;;;20.40;41.80;;;;;;5040019;28;20446;-60
2024/01/18 00:44:47;;;;;;;11.37;10.90;;;20.40;41.80;;;;;;5042342;28;20441;-60
2024/01/18 00:47:14;;;;;;;10.53;10.23;;;20.30;41.70;;;;;;5043394;28;20437;-60
2024/01/18 00:49:43;;;;;;;10.90;10.60;;;20.40;41.90;;;;;;5041415;28;20955;-60
2024/01/18 00:52:10;;;;;;;11.53;11.03;;;20.30;41.80;;;;;;5039760;28;20469;-60
2024/01/18 00:54:37;;;;;;;11.50;11.00;;;20.40;42.00;;;;;;5040889;28;20473;-62
2024/01/18 00:57:04;;;;;;;11.53;10.93;;;20.30;41.90;;;;;;5045686;28;20508;-59
2024/01/18 00:59:31;;;;;;;11.43;11.00;;;20.40;42.00;;;;;;5039896;28;20855;-62
2024/01/18 01:01:58;;;;;;;12.67;12.07;;;20.30;41.90;;;;;;5042413;28;20886;-62
2024/01/18 01:04:24;;;;;;;10.20;9.90;;;20.30;42.00;;;;;;5043412;28;20476;-61
2024/01/18 01:06:53;;;;;;;10.53;10.10;;;20.30;41.90;;;;;;5039978;28;20476;-60
2024/01/18 01:09:20;;;;;;;10.70;10.40;;;20.30;42.00;;;;;;5039741;28;20487;-62
2024/01/18 01:11:47;;;;;;;11.50;11.00;;;20.30;42.00;;;;;;5041782;28;20489;-62
2024/01/18 01:14:14;;;;;;;10.87;10.33;;;20.30;42.00;;;;;;5043020;28;20867;-60
2024/01/18 01:16:41;;;;;;;11.00;10.50;;;20.30;42.00;;;;;;5041264;28;20507;-61
2024/01/18 01:19:07;;;;;;;11.00;10.60;;;20.40;42.30;;;;;;5039587;28;20472;-60
2024/01/18 01:21:34;;;;;;;11.43;10.93;;;20.30;42.40;;;;;;5039935;28;20492;-59
2024/01/18 01:24:03;;;;;;;11.00;10.53;;;20.30;42.50;;;;;;5042916;28;20468;-61
2024/01/18 01:26:29;;;;;;;10.40;10.10;;;20.30;42.40;;;;;;5042926;28;20882;-62
2024/01/18 01:28:56;;;;;;;10.90;10.60;;;20.30;42.40;;;;;;5031384;28;21171;-60
2024/01/18 01:31:23;;;;;;;11.10;10.60;;;20.30;42.40;;;;;;5039318;28;20476;-61
2024/01/18 01:33:50;;;;;;;12.97;12.33;;;20.30;42.40;;;;;;5042122;28;20477;-60
2024/01/18 01:36:17;;;;;;;10.90;10.50;;;20.30;42.40;;;;;;5034898;28;21623;-60
2024/01/18 01:38:44;;;;;;;11.17;10.77;;;20.30;42.30;;;;;;5039558;28;20483;-58
2024/01/18 01:41:12;;;;;;;11.17;10.73;;;20.30;42.90;;;;;;5042802;28;20468;-62
2024/01/18 01:43:58;;;;;;;11.13;10.73;;;20.30;42.30;;;;;;5041466;28;20472;-62
2024/01/18 01:46:25;;;;;;;10.70;10.20;;;20.30;42.40;;;;;;5039304;28;20444;-60
2024/01/18 01:48:52;;;;;;;10.83;10.50;;;20.30;42.40;;;;;;5042083;28;20491;-61
2024/01/18 01:51:19;;;;;;;10.63;10.30;;;20.30;42.40;;;;;;5042591;28;20491;-61
2024/01/18 01:53:46;;;;;;;11.60;11.10;;;20.30;42.40;;;;;;5040669;28;20464;-60
2024/01/18 01:56:15;;;;;;;11.27;10.73;;;20.30;42.30;;;;;;5043564;28;20535;-61
2024/01/18 01:58:42;;;;;;;10.93;10.53;;;20.30;42.30;;;;;;5041172;28;20475;-60
2024/01/18 02:01:09;;;;;;;11.33;10.93;;;20.30;42.30;;;;;;5039210;28;20500;-59
2024/01/18 02:03:36;;;;;;;10.97;10.67;;;20.30;42.40;;;;;;5039609;28;20464;-58
2024/01/18 02:06:04;;;;;;;11.30;10.70;;;20.30;42.40;;;;;;5042734;28;20471;-60
2024/01/18 02:08:31;;;;;;;11.30;10.90;;;20.30;42.40;;;;;;5042611;28;20475;-62
2024/01/18 02:10:59;;;;;;;11.37;10.97;;;20.30;42.30;;;;;;5031053;28;20503;-60
2024/01/18 02:13:27;;;;;;;10.80;10.40;;;20.30;42.30;;;;;;5040164;28;20476;-62
2024/01/18 02:15:54;;;;;;;11.30;11.00;;;20.30;42.30;;;;;;5045310;28;20507;-59
2024/01/18 02:18:21;;;;;;;11.40;10.83;;;20.30;42.30;;;;;;5046052;28;20468;-59
2024/01/18 02:20:48;;;;;;;11.90;11.47;;;20.30;42.40;;;;;;5043571;28;20503;-61
2024/01/18 02:23:15;;;;;;;11.90;11.30;;;20.30;42.40;;;;;;5042480;28;20468;-61
2024/01/18 02:25:44;;;;;;;11.57;10.97;;;20.30;42.30;;;;;;5043737;28;20441;-62
2024/01/18 02:28:11;;;;;;;11.37;10.97;;;20.30;42.40;;;;;;5045820;28;20815;-61
2024/01/18 02:30:38;;;;;;;11.17;10.77;;;20.30;42.30;;;;;;5045112;28;20498;-61
2024/01/18 02:33:05;;;;;;;11.23;10.77;;;20.30;42.40;;;;;;5042287;28;20484;-60
2024/01/18 02:35:33;;;;;;;11.97;11.37;;;20.30;42.40;;;;;;5042292;28;20893;-60
2024/01/18 02:38:00;;;;;;;11.23;10.80;;;20.30;42.50;;;;;;5034491;28;20457;-60
2024/01/18 02:40:27;;;;;;;11.30;10.90;;;20.30;42.60;;;;;;5042068;28;20497;-60
2024/01/18 02:42:56;;;;;;;11.30;10.90;;;20.30;42.50;;;;;;5044772;28;20491;-61
2024/01/18 02:45:23;;;;;;;10.90;10.57;;;20.30;42.50;;;;;;5045513;28;20479;-58
2024/01/18 02:47:50;;;;;;;11.40;10.70;;;20.30;42.50;;;;;;5043133;28;20467;-61
2024/01/18 02:50:17;;;;;;;11.07;10.77;;;20.30;42.50;;;;;;5041819;28;20489;-60
2024/01/18 02:52:43;;;;;;;11.07;10.67;;;20.30;42.50;;;;;;5043249;28;20473;-58
2024/01/18 02:55:10;;;;;;;11.33;10.87;;;20.30;42.60;;;;;;5045444;28;20479;-61
2024/01/18 02:57:37;;;;;;;11.77;11.27;;;20.30;42.50;;;;;;5043373;28;20512;-60
2024/01/18 03:00:07;;;;;;;11.10;10.60;;;20.30;42.40;;;;;;5045118;28;20510;-60
2024/01/18 03:02:34;;;;;;;11.40;10.90;;;20.30;42.40;;;;;;5045086;28;20472;-59
2024/01/18 03:05:01;;;;;;;11.37;10.87;;;20.30;42.50;;;;;;5033893;28;20503;-61
2024/01/18 03:07:28;;;;;;;11.10;10.70;;;20.20;42.40;;;;;;5041582;28;20499;-59
2024/01/18 03:09:55;;;;;;;11.30;10.80;;;20.20;42.40;;;;;;5044511;28;20443;-60
2024/01/18 03:12:22;;;;;;;11.30;10.80;;;20.30;42.50;;;;;;5044876;28;20880;-58
2024/01/18 03:14:49;;;;;;;11.47;11.07;;;20.30;42.40;;;;;;5042809;28;20875;-61
2024/01/18 03:17:18;;;;;;;11.43;10.93;;;20.20;42.40;;;;;;5041451;28;20531;-58
2024/01/18 03:19:44;;;;;;;11.23;10.77;;;20.30;42.50;;;;;;5042664;28;20533;-59
2024/01/18 03:22:11;;;;;;;11.30;10.70;;;20.30;42.50;;;;;;5044774;28;20499;-61
2024/01/18 03:24:38;;;;;;;10.87;10.57;;;20.30;42.40;;;;;;5043605;28;20780;-60
2024/01/18 03:27:05;;;;;;;11.60;11.20;;;20.30;42.40;;;;;;5041210;28;20872;-59
2024/01/18 03:29:32;;;;;;;11.37;10.97;;;20.30;42.40;;;;;;5041306;28;20469;-61
2024/01/18 03:31:59;;;;;;;11.57;11.17;;;20.30;42.40;;;;;;5044163;28;20476;-60
2024/01/18 03:34:27;;;;;;;11.57;11.07;;;20.30;42.40;;;;;;5044847;28;20855;-61
2024/01/18 03:36:54;;;;;;;11.33;10.93;;;20.30;42.40;;;;;;5041942;28;20507;-63
2024/01/18 03:39:21;;;;;;;12.00;11.50;;;20.30;42.40;;;;;;5041260;28;20483;-62
2024/01/18 03:41:48;;;;;;;10.90;10.50;;;20.30;42.40;;;;;;5042517;28;20500;-62
2024/01/18 03:44:15;;;;;;;11.43;11.03;;;20.30;42.40;;;;;;5044523;28;20479;-59
2024/01/18 03:46:41;;;;;;;12.17;11.67;;;20.30;42.40;;;;;;5043459;28;20482;-62
2024/01/18 03:49:08;;;;;;;11.20;10.80;;;20.30;42.30;;;;;;5040916;28;20548;-62
2024/01/18 03:51:37;;;;;;;14.17;13.67;;;20.30;42.30;;;;;;5040850;28;20488;-59
2024/01/18 03:54:03;;;;;;;11.50;11.10;;;20.30;42.30;;;;;;5032900;28;20476;-62
2024/01/18 03:56:30;;;;;;;11.40;11.00;;;20.30;42.30;;;;;;5045920;28;21054;-59
2024/01/18 03:58:57;;;;;;;12.60;12.10;;;20.20;42.30;;;;;;5041169;28;20940;-56
2024/01/18 04:01:24;;;;;;;11.67;11.27;;;20.30;42.30;;;;;;5040646;28;20881;-60
2024/01/18 04:03:51;;;;;;;12.07;11.47;;;20.30;42.30;;;;;;5042800;28;20437;-57
2024/01/18 04:06:18;;;;;;;12.20;11.80;;;20.30;42.40;;;;;;5043928;28;20865;-62
2024/01/18 04:08:46;;;;;;;11.80;11.40;;;20.30;42.30;;;;;;5042767;28;20490;-60
2024/01/18 04:11:13;;;;;;;11.53;11.13;;;20.30;42.40;;;;;;5040414;28;20485;-60
2024/01/18 04:13:40;;;;;;;12.00;11.60;;;20.30;42.40;;;;;;5040974;28;20875;-61
2024/01/18 04:16:08;;;;;;;11.67;11.20;;;20.30;42.30;;;;;;5043589;28;20467;-59
2024/01/18 04:18:34;;;;;;;11.83;11.33;;;20.30;42.30;;;;;;5043731;28;20444;-61
2024/01/18 04:21:01;;;;;;;12.00;11.40;;;20.30;42.30;;;;;;5040057;28;20492;-60
2024/01/18 04:23:28;;;;;;;11.40;10.90;;;20.30;42.40;;;;;;5040239;28;20840;-61
2024/01/18 04:25:57;;;;;;;11.40;10.90;;;20.30;42.40;;;;;;5042699;28;20473;-60
2024/01/18 04:28:24;;;;;;;11.43;11.03;;;20.30;42.40;;;;;;5043648;28;20432;-61
2024/01/18 04:30:50;;;;;;;12.17;11.57;;;20.30;42.40;;;;;;5041784;28;20502;-62
2024/01/18 04:33:18;;;;;;;11.93;11.47;;;20.30;42.40;;;;;;5040090;28;20437;-59
2024/01/18 04:35:45;;;;;;;12.00;11.60;;;20.30;42.40;;;;;;5040901;28;20445;-61
2024/01/18 04:38:12;;;;;;;11.53;11.17;;;20.30;42.50;;;;;;5043459;28;20480;-60
2024/01/18 04:40:39;;;;;;;11.67;11.23;;;20.20;42.40;;;;;;5043518;28;20468;-60
2024/01/18 04:43:07;;;;;;;11.50;11.03;;;20.30;42.40;;;;;;5040062;28;20942;-59
2024/01/18 04:45:34;;;;;;;12.57;11.97;;;20.30;42.30;;;;;;5040212;28;20465;-62
2024/01/18 04:48:01;;;;;;;11.50;11.10;;;20.30;42.40;;;;;;5042948;28;20471;-60
2024/01/18 04:50:28;;;;;;;12.33;11.83;;;20.30;42.40;;;;;;5043449;28;20798;-58
2024/01/18 04:52:55;;;;;;;11.57;11.17;;;20.30;42.40;;;;;;5040926;28;20468;-60
2024/01/18 04:55:22;;;;;;;11.77;11.37;;;20.30;42.30;;;;;;5039639;28;20491;-61
2024/01/18 04:57:50;;;;;;;12.40;11.90;;;20.30;42.30;;;;;;5039667;28;20508;-61
2024/01/18 05:00:19;;;;;;;12.37;11.87;;;20.30;42.30;;;;;;5039720;28;20461;-61
2024/01/18 05:02:45;;;;;;;11.90;11.50;;;20.30;42.30;;;;;;5033936;28;20876;-60
2024/01/18 05:05:13;;;;;;;12.20;11.80;;;20.30;42.30;;;;;;5039754;28;20468;-60
2024/01/18 05:07:41;;;;;;;13.07;12.67;;;20.30;42.30;;;;;;5039632;28;20477;-59
2024/01/18 05:10:10;;;;;;;12.10;11.67;;;20.30;42.30;;;;;;5043041;28;20814;-60
2024/01/18 05:12:37;;;;;;;12.83;12.33;;;20.30;42.40;;;;;;5043032;28;20782;-58
2024/01/18 05:15:06;;;;;;;12.10;11.80;;;20.30;42.30;;;;;;5039660;28;20468;-59
2024/01/18 05:17:36;;;;;;;12.77;12.27;;;20.30;42.20;;;;;;5039682;28;20905;-62
2024/01/18 05:20:04;;;;;;;13.27;12.77;;;20.30;42.30;;;;;;5042505;28;20525;-60
2024/01/18 05:22:31;;;;;;;12.43;11.93;;;20.30;42.30;;;;;;5042857;28;20440;-59
2024/01/18 05:24:59;;;;;;;12.20;11.80;;;20.30;42.30;;;;;;5040429;28;20796;-59
2024/01/18 05:27:27;;;;;;;12.80;12.30;;;20.30;42.30;;;;;;5039519;28;20469;-60
2024/01/18 05:29:54;;;;;;;12.70;12.20;;;20.30;42.30;;;;;;5041497;28;20985;-62
2024/01/18 05:32:21;;;;;;;11.97;11.53;;;20.30;42.30;;;;;;5042745;28;20472;-61
2024/01/18 05:34:50;;;;;;;12.10;11.70;;;20.30;42.30;;;;;;5041769;28;20445;-61
2024/01/18 05:37:17;;;;;;;12.77;12.17;;;20.30;42.30;;;;;;5039467;28;20506;-61
2024/01/18 05:39:43;;;;;;;12.53;12.03;;;20.30;42.40;;;;;;5039619;28;20433;-59
2024/01/18 05:42:10;;;;;;;12.57;12.07;;;20.30;42.30;;;;;;5042596;28;20484;-59
2024/01/18 05:44:37;;;;;;;12.00;11.50;;;20.30;42.80;;;;;;5042839;28;20474;-59
2024/01/18 05:47:05;;;;;;;11.57;11.23;;;20.30;42.40;;;;;;5039458;28;20465;-60
2024/01/18 05:49:32;;;;;;;12.70;12.10;;;20.30;42.50;;;;;;5042395;28;20820;-62
2024/01/18 05:52:00;;;;;;;14.20;13.60;;;20.30;42.50;;;;;;5045339;28;20578;-60
2024/01/18 05:54:27;;;;;;;13.57;13.17;;;20.30;42.50;;;;;;5046421;28;20467;-62
2024/01/18 05:56:54;;;;;;;14.27;13.67;;;20.30;42.50;;;;;;5038146;28;20512;-62
2024/01/18 05:59:21;;;;;;;17.30;15.83;;;20.30;42.40;;;;;;5046361;28;20955;-62
2024/01/18 06:01:47;;;;;;;13.80;13.10;;;20.30;42.40;;;;;;5045449;28;20494;-62
2024/01/18 06:04:15;;;;;;;15.20;14.47;;;20.30;42.60;;;;;;5042882;28;20469;-59
2024/01/18 06:06:41;;;;;;;13.57;12.93;;;20.30;42.80;;;;;;5042733;28;20961;-62
2024/01/18 06:09:13;;;;;;;15.17;14.67;;;20.30;42.90;;;;;;5046098;28;20947;-61
2024/01/18 06:11:40;;;;;;;13.43;13.03;;;20.30;42.90;;;;;;5046107;28;20483;-62
2024/01/18 06:14:07;;;;;;;13.60;13.10;;;20.30;43.00;;;;;;5046461;28;20467;-61
2024/01/18 06:16:34;;;;;;;14.63;13.90;;;20.30;43.00;;;;;;5046015;28;20478;-61
2024/01/18 06:19:01;;;;;;;12.97;12.43;;;20.30;43.00;;;;;;5043133;28;21010;-60
2024/01/18 06:21:28;;;;;;;13.43;12.80;;;20.30;43.00;;;;;;5042465;28;20895;-61
2024/01/18 06:23:55;;;;;;;13.30;12.80;;;20.30;43.00;;;;;;5044154;28;20469;-59
2024/01/18 06:26:23;;;;;;;13.73;13.10;;;20.30;42.90;;;;;;5045942;28;20472;-55
2024/01/18 06:28:50;;;;;;;13.07;12.53;;;20.30;43.00;;;;;;5044801;28;20465;-60
2024/01/18 06:31:19;;;;;;;12.90;12.40;;;20.30;42.90;;;;;;5041988;28;20495;-62
2024/01/18 06:33:46;;;;;;;14.10;13.40;;;20.30;42.90;;;;;;5042916;28;20521;-61
2024/01/18 06:36:14;;;;;;;14.07;13.47;;;20.40;43.10;;;;;;5045640;28;20468;-62
2024/01/18 06:38:41;;;;;;;14.03;13.37;;;20.40;43.00;;;;;;5045553;28;20521;-61
2024/01/18 06:41:11;;;;;;;12.87;12.37;;;20.40;42.90;;;;;;5033944;28;21121;-62
2024/01/18 06:43:39;;;;;;;12.97;12.57;;;20.40;43.00;;;;;;5042363;28;20441;-62
2024/01/18 06:46:15;;;;;;;14.60;13.80;;;20.40;43.10;;;;;;5045138;28;20479;-60
2024/01/18 06:48:42;;;;;;;12.77;12.07;;;20.40;43.00;;;;;;5045423;28;20443;-61
2024/01/18 06:51:09;;;;;;;12.10;11.70;;;20.40;43.00;;;;;;5033852;28;20968;-62
2024/01/18 06:53:36;;;;;;;13.10;12.50;;;20.40;43.00;;;;;;5041963;28;20475;-62
2024/01/18 06:56:04;;;;;;;13.77;13.00;;;20.40;42.90;;;;;;5041721;28;20979;-61
2024/01/18 06:58:30;;;;;;;12.70;12.20;;;20.40;42.90;;;;;;5041959;28;20487;-61
2024/01/18 07:00:59;;;;;;;12.73;12.03;;;20.40;43.00;;;;;;5042317;28;20503;-62
2024/01/18 07:03:30;;;;;;;13.33;12.80;;;20.40;42.90;;;;;;5045071;28;20472;-63
2024/01/18 07:05:57;;;;;;;13.53;13.00;;;20.40;42.90;;;;;;5043181;28;20444;-62
2024/01/18 07:08:25;;;;;;;13.37;12.70;;;20.40;42.90;;;;;;5041658;28;20468;-62
2024/01/18 07:10:52;;;;;;;13.17;12.77;;;20.40;42.90;;;;;;5042655;28;20465;-61
2024/01/18 07:13:18;;;;;;;12.43;12.03;;;20.40;42.90;;;;;;5045185;28;20468;-61
2024/01/18 07:15:45;;;;;;;13.87;13.30;;;20.40;42.90;;;;;;5044652;28;20472;-62
2024/01/18 07:18:14;;;;;;;11.93;11.43;;;20.40;42.90;;;;;;5041383;28;20501;-62
2024/01/18 07:20:40;;;;;;;13.00;12.40;;;20.40;42.80;;;;;;5041253;28;20886;-62
2024/01/18 07:23:07;;;;;;;11.87;11.37;;;20.40;42.90;;;;;;5044374;28;20468;-61
2024/01/18 07:25:34;;;;;;;13.27;12.67;;;20.50;42.90;;;;;;5044894;28;20475;-61
2024/01/18 07:28:01;;;;;;;14.13;13.33;;;20.40;42.80;;;;;;5042424;28;20475;-61
2024/01/18 07:30:28;;;;;;;12.90;12.30;;;20.40;42.90;;;;;;5041103;28;20457;-62
2024/01/18 07:32:55;;;;;;;12.17;11.77;;;20.50;42.90;;;;;;5042507;28;20476;-62
2024/01/18 07:35:23;;;;;;;12.67;12.20;;;20.40;42.80;;;;;;5044696;28;20440;-62
2024/01/18 07:37:50;;;;;;;13.10;12.50;;;20.40;42.80;;;;;;5043869;28;20554;-63
2024/01/18 07:40:17;;;;;;;12.40;11.90;;;20.50;42.80;;;;;;5041097;28;20484;-62
2024/01/18 07:42:44;;;;;;;11.63;11.20;;;20.40;42.70;;;;;;5041063;28;20441;-62
2024/01/18 07:45:14;;;;;;;12.47;11.87;;;20.40;42.60;;;;;;5032932;28;20872;-62
2024/01/18 07:47:41;;;;;;;12.50;12.00;;;20.40;42.60;;;;;;5040983;28;20444;-62
2024/01/18 07:50:09;;;;;;;13.03;12.53;;;20.40;42.60;;;;;;5043797;28;20973;-62
2024/01/18 07:52:38;;;;;;;13.03;12.63;;;20.40;42.40;;;;;;5044290;28;20827;-62
2024/01/18 07:55:07;;;;;;;13.83;13.33;;;20.40;42.40;;;;;;5041431;28;20478;-62
2024/01/18 07:57:34;;;;;;;12.63;12.10;;;20.40;42.40;;;;;;5039034;28;20824;-62
2024/01/18 08:00:03;;;;;;;13.20;12.50;;;20.40;42.40;;;;;;5041856;28;20436;-62
2024/01/18 08:02:30;;;;;;;14.20;13.70;;;20.40;42.40;;;;;;5040721;28;20441;-61
2024/01/18 08:04:57;;;;;;;13.60;12.77;;;20.40;42.50;;;;;;5041877;28;21050;-62
2024/01/18 08:07:24;;;;;;;13.10;12.60;;;20.40;42.40;;;;;;5044140;28;20441;-62
2024/01/18 08:09:52;;;;;;;13.13;12.70;;;20.40;42.30;;;;;;5043298;28;20468;-62
2024/01/18 08:12:19;;;;;;;13.10;12.60;;;20.50;42.40;;;;;;5040106;28;20940;-62
2024/01/18 08:14:46;;;;;;;13.90;13.30;;;20.50;42.40;;;;;;5040464;28;20469;-61
2024/01/18 08:17:13;;;;;;;13.70;13.00;;;20.50;42.50;;;;;;5032430;28;20480;-63
2024/01/18 08:19:40;;;;;;;12.77;12.37;;;20.40;42.30;;;;;;5040184;28;20519;-61
2024/01/18 08:22:08;;;;;;;13.53;12.83;;;20.40;42.30;;;;;;5042793;28;20540;-62
2024/01/18 08:24:34;;;;;;;13.87;13.27;;;20.40;42.50;;;;;;5043703;28;21102;-62
2024/01/18 08:27:03;;;;;;;13.87;13.10;;;20.50;42.60;;;;;;5041666;28;20440;-62
2024/01/18 08:29:30;;;;;;;13.53;13.13;;;20.50;42.60;;;;;;5040135;28;20469;-62
2024/01/18 08:31:57;;;;;;;14.10;13.50;;;20.40;42.50;;;;;;5041202;28;20496;-62
2024/01/18 08:34:24;;;;;;;13.37;12.77;;;20.50;42.50;;;;;;5038391;28;20481;-61
2024/01/18 08:36:51;;;;;;;13.33;12.83;;;20.40;42.40;;;;;;5040369;28;20473;-61
2024/01/18 08:39:19;;;;;;;13.60;13.10;;;20.40;42.50;;;;;;5043382;28;20827;-61
2024/01/18 08:41:46;;;;;;;13.30;12.63;;;20.40;42.50;;;;;;5043369;28;20547;-62
2024/01/18 08:44:14;;;;;;;12.70;12.30;;;20.40;42.40;;;;;;5040073;28;20877;-62
2024/01/18 08:46:41;;;;;;;13.30;12.80;;;20.50;42.50;;;;;;5039954;28;20488;-63
2024/01/18 08:49:08;;;;;;;13.80;13.20;;;20.40;42.40;;;;;;5042491;28;20549;-62
2024/01/18 08:51:35;;;;;;;12.93;12.53;;;20.50;42.50;;;;;;5043062;28;20459;-62
2024/01/18 08:54:02;;;;;;;13.30;12.80;;;20.40;42.30;;;;;;5041424;28;20982;-63
2024/01/18 08:56:29;;;;;;;13.70;13.20;;;20.50;42.50;;;;;;5041658;28;20472;-62
2024/01/18 08:58:56;;;;;;;13.30;12.80;;;20.50;42.50;;;;;;5042005;28;20926;-62
2024/01/18 09:01:24;;;;;;;13.90;13.40;;;20.40;42.50;;;;;;5039676;28;20551;-62
2024/01/18 09:03:51;;;;;;;13.33;12.83;;;20.40;42.50;;;;;;5040009;28;20440;-62
2024/01/18 09:06:18;;;;;;;14.73;13.53;;;20.50;42.50;;;;;;5043110;28;20475;-62
2024/01/18 09:08:45;;;;;;;12.93;12.37;;;20.50;42.50;;;;;;5043314;28;20928;-62
2024/01/18 09:11:13;;;;;;;13.80;13.10;;;20.50;42.50;;;;;;5039711;28;20489;-61
2024/01/18 09:13:42;;;;;;;14.20;13.73;;;20.50;42.50;;;;;;5039638;28;20445;-63
2024/01/18 09:16:09;;;;;;;13.50;13.00;;;20.50;42.50;;;;;;5042157;28;20477;-62
2024/01/18 09:18:38;;;;;;;13.27;12.77;;;20.50;42.50;;;;;;5042992;28;20514;-63
2024/01/18 09:21:05;;;;;;;14.40;13.70;;;20.50;42.50;;;;;;5040521;28;20971;-62
2024/01/18 09:23:32;;;;;;;14.10;13.53;;;20.50;42.50;;;;;;5041131;28;20445;-62
2024/01/18 09:26:00;;;;;;;14.30;13.73;;;20.50;42.60;;;;;;5044766;28;20481;-63
2024/01/18 09:28:27;;;;;;;13.30;12.90;;;20.50;42.60;;;;;;5047135;28;21054;-63
2024/01/18 09:30:54;;;;;;;13.90;13.40;;;20.50;42.60;;;;;;5046174;28;20474;-63
2024/01/18 09:33:21;;;;;;;13.37;12.97;;;20.50;42.60;;;;;;5043605;28;20451;-62
2024/01/18 09:35:51;;;;;;;13.80;13.30;;;20.50;42.70;;;;;;5043401;28;20469;-63
2024/01/18 09:38:19;;;;;;;13.17;12.67;;;20.40;42.40;;;;;;5035659;28;20476;-62
2024/01/18 09:40:46;;;;;;;13.83;13.33;;;20.50;42.40;;;;;;5043374;28;20560;-62
2024/01/18 09:43:17;;;;;;;14.20;13.50;;;20.50;42.50;;;;;;5046202;28;20460;-63
2024/01/18 09:45:48;;;;;;;13.90;13.40;;;20.50;42.50;;;;;;5046814;28;20443;-62
2024/01/18 09:48:15;;;;;;;14.97;14.37;;;20.50;42.70;;;;;;5043065;28;20437;-63
2024/01/18 09:50:45;;;;;;;14.33;13.77;;;20.50;42.80;;;;;;5043118;28;20467;-62
2024/01/18 09:53:13;;;;;;;14.57;14.07;;;20.50;42.80;;;;;;5045808;28;20835;-62
2024/01/18 09:55:40;;;;;;;14.10;13.60;;;20.50;42.70;;;;;;5043903;28;20527;-60
2024/01/18 09:58:12;;;;;;;14.47;13.90;;;20.50;42.70;;;;;;5045348;28;20516;-62
2024/01/18 10:00:44;;;;;;;15.07;14.47;;;20.50;42.70;;;;;;5046413;28;20482;-61
2024/01/18 10:03:11;;;;;;;13.60;13.20;;;20.50;42.70;;;;;;5043524;28;20436;-63
2024/01/18 10:05:38;;;;;;;14.87;14.13;;;20.50;42.70;;;;;;5042816;28;20476;-62
2024/01/18 10:08:05;;;;;;;14.43;13.83;;;20.50;42.70;;;;;;5044738;28;20449;-61
2024/01/18 10:10:34;;;;;;;14.87;14.27;;;20.50;42.60;;;;;;5046166;28;20479;-62
2024/01/18 10:13:02;;;;;;;14.77;13.97;;;20.50;42.60;;;;;;5044748;28;21166;-62
2024/01/18 10:15:32;;;;;;;15.00;14.10;;;20.50;42.70;;;;;;5042609;28;20452;-62
2024/01/18 10:17:59;;;;;;;14.70;14.10;;;20.50;42.70;;;;;;5043552;28;20536;-62
2024/01/18 10:20:26;;;;;;;14.53;13.93;;;20.50;42.70;;;;;;5045950;28;20492;-62
2024/01/18 10:22:54;;;;;;;14.57;13.93;;;20.50;42.70;;;;;;5045642;28;20468;-62
2024/01/18 10:25:25;;;;;;;14.90;14.20;;;20.50;42.80;;;;;;5042366;28;20445;-61
2024/01/18 10:27:54;;;;;;;14.40;13.80;;;20.50;42.80;;;;;;5042432;28;20441;-62
2024/01/18 10:30:22;;;;;;;14.73;14.20;;;20.50;42.80;;;;;;5045762;28;20519;-62
2024/01/18 10:32:49;;;;;;;14.90;14.30;;;20.50;42.80;;;;;;5045924;28;20475;-61
2024/01/18 10:35:21;;;;;;;14.17;13.50;;;20.50;42.80;;;;;;5042167;28;20445;-61
2024/01/18 10:37:48;;;;;;;14.23;13.67;;;20.50;42.80;;;;;;5042440;28;20475;-63
2024/01/18 10:40:20;;;;;;;14.83;14.20;;;20.50;42.80;;;;;;5045010;28;20563;-62
2024/01/18 10:42:47;;;;;;;13.80;13.23;;;20.50;42.80;;;;;;5045533;28;20436;-62
2024/01/18 10:45:17;;;;;;;15.57;14.87;;;20.50;42.70;;;;;;5042688;28;20546;-61
2024/01/18 10:47:45;;;;;;;14.30;13.80;;;20.50;42.60;;;;;;5042118;28;20473;-61
2024/01/18 10:50:12;;;;;;;14.37;13.77;;;20.50;42.60;;;;;;5044320;28;20477;-61
2024/01/18 10:52:40;;;;;;;15.17;14.37;;;20.50;42.60;;;;;;5045321;28;20476;-62
2024/01/18 10:55:09;;;;;;;15.27;14.60;;;20.50;42.50;;;;;;5043435;28;20472;-61
2024/01/18 10:57:36;;;;;;;14.30;13.73;;;20.50;42.50;;;;;;5039501;28;20468;-61
2024/01/18 11:00:06;;;;;;;14.50;13.90;;;20.50;42.50;;;;;;5043569;28;21012;-62
2024/01/18 11:02:39;;;;;;;14.07;13.57;;;20.50;42.50;;;;;;5041700;28;20441;-62
2024/01/18 11:05:09;;;;;;;13.97;13.47;;;20.50;42.40;;;;;;5043358;28;20948;-63
2024/01/18 11:07:37;;;;;;;13.63;13.17;;;20.50;42.40;;;;;;5045330;28;20440;-63
2024/01/18 11:10:07;;;;;;;13.73;13.20;;;20.60;42.60;;;;;;5043396;28;20467;-61
2024/01/18 11:12:35;;;;;;;14.43;13.60;;;20.50;42.50;;;;;;5041603;28;20453;-62
2024/01/18 11:15:04;;;;;;;13.70;13.20;;;20.60;42.60;;;;;;5042509;28;20449;-60
2024/01/18 11:17:31;;;;;;;14.80;14.17;;;20.60;42.60;;;;;;5045085;28;20436;-62
2024/01/18 11:20:04;;;;;;;15.50;14.77;;;20.60;42.60;;;;;;5044236;28;20571;-63
2024/01/18 11:22:31;;;;;;;13.87;13.47;;;20.60;42.60;;;;;;5041537;28;20473;-62
2024/01/18 11:25:04;;;;;;;14.00;13.40;;;20.60;42.60;;;;;;5041611;28;20446;-62
2024/01/18 11:27:37;;;;;;;15.10;14.40;;;20.60;42.60;;;;;;5044904;28;20468;-60
2024/01/18 11:30:06;;;;;;;14.93;14.03;;;20.60;42.60;;;;;;5043147;28;20436;-61
2024/01/18 11:32:34;;;;;;;14.10;13.40;;;20.60;42.60;;;;;;5041155;28;20469;-61
2024/01/18 11:35:13;;;;;;;13.80;13.10;;;20.60;42.70;;;;;;5041964;28;20441;-62
2024/01/18 11:37:40;;;;;;;13.87;13.30;;;20.60;42.70;;;;;;5044740;28;20436;-63
2024/01/18 11:40:09;;;;;;;14.13;13.40;;;20.60;42.90;;;;;;5042472;28;20503;-67
2024/01/18 11:42:38;;;;;;;14.83;13.93;;;20.60;42.90;;;;;;5040979;28;20438;-63
2024/01/18 11:45:07;;;;;;;16.03;14.83;;;20.60;44.90;;;;;;5042043;28;20864;-69
2024/01/18 11:47:37;;;;;;;15.37;14.57;;;20.60;44.40;;;;;;5043778;28;20444;-69
2024/01/18 11:50:05;;;;;;;14.23;13.73;;;20.60;44.30;;;;;;5035030;28;20503;-67
2024/01/18 11:52:35;;;;;;;14.43;13.83;;;20.70;44.30;;;;;;5028729;28;20442;-67
2024/01/18 11:55:03;;;;;;;15.27;14.57;;;20.70;44.20;;;;;;5013083;28;20442;-67
2024/01/18 11:57:32;;;;;;;15.17;14.27;;;20.70;44.20;;;;;;5013072;28;21166;-68
2024/01/18 11:59:59;;;;;;;14.87;14.17;;;20.70;44.20;;;;;;5012885;28;20915;-69
2024/01/18 12:02:28;;;;;;;15.47;14.50;;;20.80;44.30;;;;;;5013033;28;20446;-63
2024/01/18 12:04:55;;;;;;;15.60;14.73;;;20.80;44.60;;;;;;5013251;28;20493;-66
2024/01/18 12:07:25;;;;;;;14.67;13.53;;;20.80;45.90;;;;;;5012832;28;20473;-68
2024/01/18 12:09:53;;;;;;;13.50;13.00;;;20.80;45.20;;;;;;5012837;28;20942;-68
2024/01/18 12:12:20;;;;;;;13.50;12.90;;;20.90;45.20;;;;;;5012540;28;20470;-68
2024/01/18 12:14:48;;;;;;;14.13;13.20;;;20.90;45.40;;;;;;5012699;28;20474;-66
2024/01/18 12:17:17;;;;;;;15.33;14.20;;;20.90;45.50;;;;;;5012762;28;20448;-66
2024/01/18 12:19:45;;;;;;;15.37;14.57;;;20.90;45.80;;;;;;5012534;28;20517;-67
2024/01/18 12:22:13;;;;;;;13.47;12.87;;;20.90;45.80;;;;;;5013197;28;20509;-68
2024/01/18 12:24:42;;;;;;;13.83;13.10;;;20.90;45.40;;;;;;5012148;28;20485;-69
2024/01/18 12:27:10;;;;;;;14.87;14.07;;;20.90;45.20;;;;;;5012417;28;20449;-67
2024/01/18 12:29:39;;;;;;;13.90;13.13;;;20.90;45.10;;;;;;5012433;28;20480;-68